CFB Trenton
CYTR : now visible

Airfield :











YOU CAN JOIN US ON...

 
LOGIN :

Register | Disclaimer

   EN    FR    IT 

 









Legend :    VFR   Marginal VFR   IFR   Intensive IFR   Very Intensive IFR
Visi :
Ceiling :
>= 8 km
>= 3000ft
5 to 8 km
1000 to 3000 ft
1500m to 5 km
500 to 1000 ft
800 to 1500m
200 to 500 ft
< 800m
< 200 ft
Symbols :   Thunderstorms  Fog  Heavy snow  Heavy precipitations  Wind > 20 kt






- Airport Elevation : 283 ft
- IATA code : YTR


CYTR - CFB Trenton

CURRENT METAR :
  • 280500Z 20007KT 15SM SKC 21/14 A3004 RMK SLP173

EXPIRED METARs :
  • 280400Z 19005KT 15SM SKC 21/14 A3004 RMK SLP171
  • 280300Z 18003KT 15SM FEW280 22/15 A3003 RMK CI1 SLP170

TAF TAF CYTR
Valid from the 28 at 00:00 until the 29 at 00:00 UTC


272330Z 2800/2824 20005KT P6SM FEW060 BKN180
FM281200 20005KT P6SM SCT040 BKN160
BECMG 2814/2816 20010KT
FM281800 20010KT P6SM SCT040 BKN080 OVC130
FM282100 20010KT P6SM -SHRA BKN040 OVC080 RMK NXT FCST BY 280600Z
CZYZ FIR / North America



MET'MAP, your aeronautical weather chart ! - Copyright ORBIFLY December 2007 - Disclaimer

ORBIFLY MET'MAP TEAM :

Programming & Development : Alexandra Zaïnal
Concept & original design : Baudouin d'Aumeries
Assistance for programming : Marc-Olivier Méhu
Technical & hardware support : Manuel Goepfert

Contact : metmap@orbifly.com




SOURCES & CREDITS :

   NOAA       Earth
Advisory